Time;durP1;ratioP1;P1;durP2;ratioP2;P2;SDS_P1;SDS_P2;PMS_P1;PMS_P2;Temp;Humidity;BMP_temperature;BMP_pressure;BME280_temperature;BME280_humidity;BME280_pressure;Samples;Min_cycle;Max_cycle;Signal;HPM_P1;HPM_P2
2023/11/26 00:02:57;;;;;;;5.47;1.83;;;16.90;94.50;;;;;;10557173;27;20082;-22
2023/11/26 00:07:59;;;;;;;4.10;1.47;;;17.00;94.20;;;;;;10537659;27;20143;-22
2023/11/26 00:13:02;;;;;;;5.70;1.70;;;16.10;94.80;;;;;;10554848;27;20195;-22
2023/11/26 00:18:04;;;;;;;3.97;1.60;;;16.20;96.40;;;;;;10545175;28;20103;-23
2023/11/26 00:23:06;;;;;;;2.03;1.10;;;14.90;99.40;;;;;;10552926;27;20054;-23
2023/11/26 00:28:09;;;;;;;6.03;1.40;;;15.90;97.50;;;;;;10555344;27;20154;-22
2023/11/26 00:33:11;;;;;;;4.32;1.60;;;16.20;96.90;;;;;;10553695;27;20075;-23
2023/11/26 00:38:13;;;;;;;2.37;1.10;;;16.00;95.10;;;;;;10558781;27;20050;-22
2023/11/26 00:43:17;;;;;;;3.72;1.30;;;16.30;95.60;;;;;;10570330;27;20453;-22
2023/11/26 00:48:18;;;;;;;1.52;1.10;;;15.00;90.60;;;;;;10561188;27;20137;-22
2023/11/26 00:53:20;;;;;;;2.50;1.10;;;15.00;98.40;;;;;;10561223;27;20810;-23
2023/11/26 00:58:23;;;;;;;3.83;1.02;;;15.20;93.70;;;;;;10567538;27;20586;-22
2023/11/26 01:03:26;;;;;;;1.60;1.05;;;15.10;99.00;;;;;;10564057;27;20209;-21
2023/11/26 01:08:28;;;;;;;;;;;14.40;96.10;;;;;;10562928;27;20184;-20
2023/11/26 01:13:31;;;;;;;2.78;1.20;;;14.70;99.90;;;;;;10560122;27;19966;-22
2023/11/26 01:18:33;;;;;;;3.65;1.30;;;14.90;96.90;;;;;;10567000;27;20039;-22
2023/11/26 01:23:35;;;;;;;3.53;1.03;;;15.90;98.10;;;;;;10566510;27;20109;-22
2023/11/26 01:28:38;;;;;;;2.10;1.07;;;16.40;91.40;;;;;;10564612;27;20063;-22
2023/11/26 01:33:40;;;;;;;2.22;1.10;;;13.40;99.90;;;;;;10563494;27;20116;-22
2023/11/26 01:38:42;;;;;;;2.03;0.80;;;15.00;99.90;;;;;;10564328;27;20047;-22
2023/11/26 01:43:45;;;;;;;5.13;1.23;;;16.60;96.20;;;;;;10560421;27;20787;-23
2023/11/26 01:48:48;;;;;;;2.67;0.98;;;16.90;95.10;;;;;;10565436;27;20039;-22
2023/11/26 01:53:52;;;;;;;2.70;1.00;;;16.90;94.80;;;;;;10564377;27;20047;-22
2023/11/26 01:58:56;;;;;;;2.85;1.10;;;17.00;94.60;;;;;;10557284;27;20054;-23
2023/11/26 02:03:58;;;;;;;2.60;0.95;;;17.00;94.50;;;;;;10567179;27;20078;-23
2023/11/26 02:09:00;;;;;;;3.03;0.80;;;17.00;94.40;;;;;;10555555;27;20245;-22
2023/11/26 02:14:04;;;;;;;;;;;17.00;94.30;;;;;;10548263;27;20058;-23
2023/11/26 02:19:09;;;;;;;;;;;17.00;94.20;;;;;;10566227;27;19923;-27
2023/11/26 02:24:16;;;;;;;2.55;1.00;;;13.90;92.40;;;;;;10565153;27;20038;-22
2023/11/26 02:29:19;;;;;;;3.28;0.88;;;13.80;98.10;;;;;;10560471;27;20054;-22
2023/11/26 02:34:22;;;;;;;1.65;0.65;;;15.30;98.40;;;;;;10566501;27;20047;-22
2023/11/26 02:39:24;;;;;;;;;;;14.90;99.90;;;;;;10567061;27;20127;-22
2023/11/26 02:44:27;;;;;;;3.25;0.90;;;14.90;96.50;;;;;;10575394;27;22739;-22
2023/11/26 02:49:29;;;;;;;2.22;0.95;;;14.10;99.50;;;;;;10565971;27;20050;-22
2023/11/26 02:54:31;;;;;;;3.63;0.80;;;15.50;99.40;;;;;;10566558;27;20047;-22
2023/11/26 02:59:34;;;;;;;8.13;1.20;;;15.60;91.20;;;;;;10563367;27;20484;-23
2023/11/26 03:04:37;;;;;;;2.10;0.88;;;16.50;96.10;;;;;;10561191;27;20054;-23
2023/11/26 03:12:56;;;;;;;1.75;0.77;;;13.40;92.10;;;;;;10564998;27;20035;-23
2023/11/26 03:15:07;;;;;;;2.65;0.90;;;14.80;99.90;;;;;;10570197;27;20130;-22
2023/11/26 03:20:10;;;;;;;1.02;0.60;;;15.60;99.30;;;;;;10558084;27;20044;-22
2023/11/26 03:25:13;;;;;;;1.30;0.70;;;15.90;96.90;;;;;;10558794;27;20862;-22
2023/11/26 03:30:16;;;;;;;2.70;0.90;;;13.50;99.90;;;;;;10559833;27;20051;-23
2023/11/26 03:35:18;;;;;;;4.22;1.05;;;13.80;99.90;;;;;;10563912;27;20061;-23
2023/11/26 03:40:20;;;;;;;2.67;0.70;;;14.90;99.60;;;;;;10553162;27;20036;-23
2023/11/26 03:45:23;;;;;;;1.80;0.67;;;13.80;99.90;;;;;;10554867;27;20048;-23
2023/11/26 03:50:25;;;;;;;1.42;0.55;;;14.50;99.90;;;;;;10559292;27;20097;-22
2023/11/26 03:55:27;;;;;;;1.63;0.80;;;15.70;99.10;;;;;;10560473;27;20051;-23
2023/11/26 04:15:31;;;;;;;1.20;0.60;;;16.40;95.70;;;;;;10580209;27;20119;-22
2023/11/26 04:20:33;;;;;;;0.52;0.45;;;14.50;95.50;;;;;;10596757;27;20049;-21
2023/11/26 04:25:35;;;;;;;0.80;0.50;;;14.80;99.90;;;;;;10597790;27;20493;-22
2023/11/26 04:30:39;;;;;;;1.57;0.57;;;15.60;95.10;;;;;;10600325;27;20058;-22
2023/11/26 04:35:41;;;;;;;2.38;0.82;;;15.10;90.40;;;;;;10590930;27;20133;-22
2023/11/26 04:40:43;;;;;;;1.83;0.70;;;13.30;99.80;;;;;;10590793;27;20043;-22
2023/11/26 04:45:46;;;;;;;1.73;0.80;;;12.10;99.90;;;;;;10595505;27;20051;-22
2023/11/26 04:50:48;;;;;;;2.53;0.60;;;13.80;99.90;;;;;;10594468;27;20081;-23
2023/11/26 04:55:52;;;;;;;2.70;0.75;;;13.50;99.00;;;;;;10591893;27;20590;-23
2023/11/26 05:00:56;;;;;;;1.13;0.50;;;12.70;99.90;;;;;;10601803;27;20525;-23
2023/11/26 05:05:58;;;;;;;1.27;0.40;;;12.10;97.70;;;;;;10595113;27;20081;-23
2023/11/26 05:11:01;;;;;;;1.17;0.50;;;14.20;99.90;;;;;;10595931;27;20351;-23
2023/11/26 05:16:05;;;;;;;2.00;0.70;;;15.20;99.90;;;;;;10599559;27;20050;-23
2023/11/26 05:21:09;;;;;;;2.08;0.43;;;15.10;99.70;;;;;;10591154;27;20059;-22
2023/11/26 05:26:13;;;;;;;2.20;0.57;;;13.30;99.90;;;;;;10565806;27;20052;-23
2023/11/26 05:31:16;;;;;;;2.70;1.02;;;12.00;99.90;;;;;;10569435;27;20051;-22
2023/11/26 05:36:19;;;;;;;3.30;0.60;;;12.40;99.90;;;;;;10566114;27;20062;-22
2023/11/26 05:41:20;;;;;;;1.38;0.50;;;11.00;99.90;;;;;;10572626;27;20043;-22
2023/11/26 05:46:24;;;;;;;1.40;0.60;;;12.60;99.90;;;;;;10571417;27;20055;-21
2023/11/26 05:51:27;;;;;;;1.02;0.55;;;13.10;99.90;;;;;;10569125;27;20042;-23
2023/11/26 05:56:29;;;;;;;0.68;0.30;;;14.50;99.90;;;;;;10578118;27;20158;-23
2023/11/26 06:01:33;;;;;;;2.50;0.22;;;14.20;95.10;;;;;;10579367;27;20047;-23
2023/11/26 06:06:35;;;;;;;1.30;0.68;;;14.40;99.30;;;;;;10577907;27;20051;-23
2023/11/26 06:11:37;;;;;;;2.00;0.50;;;13.60;99.90;;;;;;10575187;27;20056;-22
2023/11/26 06:16:42;;;;;;;3.43;0.50;;;12.50;99.90;;;;;;10571998;27;20050;-21
2023/11/26 06:21:44;;;;;;;2.25;0.52;;;11.50;99.90;;;;;;10577350;27;20058;-22
2023/11/26 06:26:46;;;;;;;1.80;1.00;;;12.30;99.90;;;;;;10571506;27;20055;-23
2023/11/26 06:31:49;;;;;;;2.55;0.60;;;12.60;99.90;;;;;;10563090;27;20055;-22
2023/11/26 06:36:51;;;;;;;2.33;0.52;;;12.80;99.90;;;;;;10570778;27;20444;-23
2023/11/26 06:41:52;;;;;;;1.27;0.50;;;12.80;99.90;;;;;;10570187;27;20040;-23
2023/11/26 06:46:57;;;;;;;2.83;0.50;;;14.40;99.90;;;;;;10566291;27;20047;-23
2023/11/26 06:51:59;;;;;;;1.85;0.30;;;15.70;98.80;;;;;;10562532;27;20800;-23
2023/11/26 06:57:01;;;;;;;1.60;0.40;;;16.20;98.40;;;;;;10568239;27;20051;-22
2023/11/26 07:02:04;;;;;;;3.47;0.40;;;16.60;96.50;;;;;;10558421;27;20051;-22
2023/11/26 07:07:06;;;;;;;1.02;0.50;;;16.50;96.60;;;;;;10557491;27;20178;-23
2023/11/26 07:12:09;;;;;;;0.67;0.27;;;16.90;95.60;;;;;;10566855;27;20043;-23
2023/11/26 07:17:13;;;;;;;;;;;16.90;95.40;;;;;;10568626;27;20184;-22
2023/11/26 07:22:16;;;;;;;1.42;0.20;;;17.00;95.10;;;;;;10563700;27;19924;-22
2023/11/26 07:27:18;;;;;;;1.30;0.40;;;17.00;94.80;;;;;;10555087;27;20047;-22
2023/11/26 07:32:21;;;;;;;2.03;0.40;;;17.10;94.70;;;;;;10556117;27;20044;-23
2023/11/26 07:37:24;;;;;;;1.85;0.40;;;17.10;94.70;;;;;;10550722;27;20139;-23
2023/11/26 07:42:26;;;;;;;1.23;0.35;;;17.10;94.90;;;;;;10545350;27;20036;-23
2023/11/26 07:47:29;;;;;;;2.33;0.40;;;17.10;94.60;;;;;;10542890;27;20158;-22
2023/11/26 07:52:33;;;;;;;3.90;0.47;;;17.10;94.60;;;;;;10552454;27;20708;-23
2023/11/26 07:57:36;;;;;;;0.75;0.43;;;17.20;94.60;;;;;;10551939;27;20123;-23
2023/11/26 08:02:40;;;;;;;2.75;0.73;;;17.20;94.50;;;;;;10547223;27;20050;-23
2023/11/26 08:07:45;;;;;;;7.43;0.60;;;17.10;94.50;;;;;;10552531;27;20055;-22
2023/11/26 08:12:49;;;;;;;7.65;1.80;;;17.10;94.60;;;;;;10547526;28;20070;-23
2023/11/26 08:17:55;;;;;;;6.55;0.82;;;17.20;94.60;;;;;;10539926;27;20111;-23
2023/11/26 08:23:01;;;;;;;6.43;1.00;;;17.20;94.90;;;;;;10536441;28;20048;-23
2023/11/26 08:28:06;;;;;;;7.13;1.10;;;17.10;94.80;;;;;;10544206;28;20055;-23
2023/11/26 08:33:10;;;;;;;5.25;1.10;;;16.80;91.50;;;;;;10543448;28;20893;-22
2023/11/26 08:38:13;;;;;;;6.03;1.38;;;16.90;95.10;;;;;;10541058;27;20394;-23
2023/11/26 08:43:18;;;;;;;2.88;0.70;;;16.30;96.60;;;;;;10551521;28;20177;-23
2023/11/26 08:48:23;;;;;;;2.60;0.77;;;14.50;93.80;;;;;;10546887;28;21244;-23
2023/11/26 08:53:25;;;;;;;7.80;0.80;;;16.50;97.60;;;;;;10555040;28;20031;-22
2023/11/26 08:58:27;;;;;;;5.70;1.02;;;15.40;99.40;;;;;;10552912;27;20051;-24
2023/11/26 09:03:30;;;;;;;2.00;0.70;;;14.20;94.60;;;;;;10556397;27;20040;-22
2023/11/26 09:08:32;;;;;;;3.50;0.52;;;11.50;99.90;;;;;;10560736;27;20056;-23
2023/11/26 09:13:34;;;;;;;6.97;0.80;;;11.90;99.90;;;;;;10551511;27;20515;-22
2023/11/26 09:18:37;;;;;;;1.60;0.70;;;11.10;99.90;;;;;;10557705;27;20078;-23
2023/11/26 09:23:42;;;;;;;2.25;0.70;;;12.10;99.90;;;;;;10554559;27;20094;-22
2023/11/26 09:28:44;;;;;;;3.60;0.90;;;13.30;99.90;;;;;;10548811;27;20052;-23
2023/11/26 09:33:48;;;;;;;6.87;0.80;;;12.40;99.90;;;;;;10556310;27;20055;-23
2023/11/26 09:38:49;;;;;;;2.05;0.93;;;13.50;99.90;;;;;;10564261;27;20823;-23
2023/11/26 09:43:51;;;;;;;5.80;1.23;;;12.40;99.90;;;;;;10557720;27;20170;-23
2023/11/26 09:48:55;;;;;;;3.30;1.23;;;11.90;99.90;;;;;;10562894;27;20054;-23
2023/11/26 09:53:56;;;;;;;2.65;0.85;;;13.50;99.90;;;;;;10552659;27;20580;-23
2023/11/26 09:58:58;;;;;;;4.73;1.00;;;13.50;99.90;;;;;;10553605;27;20055;-23
2023/11/26 10:04:04;;;;;;;6.00;1.10;;;12.40;99.90;;;;;;10553063;27;20958;-22
2023/11/26 10:09:17;;;;;;;3.50;0.90;;;11.20;99.90;;;;;;10551248;27;20044;-23
2023/11/26 10:14:20;;;;;;;4.32;1.02;;;12.70;99.90;;;;;;10553077;27;20047;-22
2023/11/26 10:19:25;;;;;;;4.75;1.10;;;10.80;99.90;;;;;;10554391;27;20058;-22
2023/11/26 10:24:29;;;;;;;4.90;1.23;;;12.00;99.90;;;;;;10546625;27;20128;-21
2023/11/26 10:29:31;;;;;;;3.88;1.17;;;12.70;99.90;;;;;;10561711;27;20047;-21
2023/11/26 10:34:35;;;;;;;5.50;1.30;;;12.90;99.90;;;;;;10555822;27;20043;-23
2023/11/26 10:39:37;;;;;;;6.82;1.42;;;13.70;99.90;;;;;;10555243;27;21656;-23
2023/11/26 10:44:40;;;;;;;6.23;2.93;;;14.20;99.90;;;;;;10554362;27;20055;-23
2023/11/26 10:49:48;;;;;;;3.58;1.48;;;14.40;99.90;;;;;;10557379;27;20062;-23
2023/11/26 10:54:58;;;;;;;5.57;1.38;;;14.50;99.20;;;;;;10558714;27;20099;-22
2023/11/26 11:00:06;;;;;;;5.50;1.48;;;15.00;99.90;;;;;;10553037;27;20050;-22
2023/11/26 11:05:10;;;;;;;3.85;1.63;;;13.00;99.90;;;;;;10548428;27;20091;-22
2023/11/26 11:10:21;;;;;;;3.10;1.23;;;13.50;99.90;;;;;;10558212;27;20800;-23
2023/11/26 11:15:25;;;;;;;3.75;1.15;;;12.70;99.90;;;;;;10548944;27;20059;-23
2023/11/26 11:21:05;;;;;;;6.57;1.38;;;14.70;99.90;;;;;;10546868;27;20047;-22
2023/11/26 11:26:09;;;;;;;2.60;1.42;;;12.80;99.90;;;;;;10550594;27;20058;-21
2023/11/26 11:31:12;;;;;;;2.88;1.40;;;14.70;99.90;;;;;;10552482;27;20081;-23
2023/11/26 11:36:51;;;;;;;2.83;1.52;;;11.90;99.90;;;;;;10538085;27;20050;-23
2023/11/26 11:42:25;;;;;;;4.40;1.70;;;11.20;99.90;;;;;;10548399;27;20726;-22
2023/11/26 11:47:42;;;;;;;3.90;1.52;;;12.80;99.90;;;;;;10529221;27;20775;-23
2023/11/26 11:52:44;;;;;;;3.00;1.17;;;11.70;99.90;;;;;;10546668;27;20114;-22
2023/11/26 11:57:48;;;;;;;;;;;11.40;99.90;;;;;;10546948;27;20148;-23
2023/11/26 12:02:52;;;;;;;3.13;1.10;;;13.10;99.90;;;;;;10542927;27;19920;-24
2023/11/26 12:07:56;;;;;;;1.52;1.08;;;12.30;99.90;;;;;;10544964;27;20108;-22
2023/11/26 12:13:03;;;;;;;4.57;1.25;;;14.70;99.90;;;;;;10540821;27;20054;-23
2023/11/26 12:18:06;;;;;;;2.13;1.33;;;14.80;99.90;;;;;;10549188;27;20690;-22
2023/11/26 12:23:07;;;;;;;;;;;14.90;99.90;;;;;;10550392;28;20074;-21
2023/11/26 12:28:12;;;;;;;4.07;1.00;;;14.20;99.90;;;;;;10549647;28;20032;-22
2023/11/26 12:33:16;;;;;;;2.65;1.08;;;12.10;99.90;;;;;;10541149;27;20042;-23
2023/11/26 12:38:24;;;;;;;4.45;1.35;;;13.00;99.90;;;;;;10553982;27;20077;-23
2023/11/26 12:43:28;;;;;;;5.50;2.10;;;12.70;99.90;;;;;;10549823;27;20043;-23
2023/11/26 12:48:32;;;;;;;5.47;1.50;;;10.90;99.90;;;;;;10548041;27;20439;-23
2023/11/26 12:53:35;;;;;;;4.20;1.77;;;9.80;99.90;;;;;;10554413;27;20044;-24
2023/11/26 12:58:38;;;;;;;9.57;3.15;;;9.50;99.90;;;;;;10555858;27;20856;-23
2023/11/26 13:03:49;;;;;;;13.68;6.25;;;10.20;99.90;;;;;;10556749;27;20047;-23
2023/11/26 13:09:01;;;;;;;21.55;10.98;;;12.60;99.90;;;;;;10552886;27;21403;-22
2023/11/26 13:14:05;;;;;;;21.92;11.70;;;11.60;99.90;;;;;;10550229;27;20082;-24
2023/11/26 13:19:07;;;;;;;24.25;11.70;;;9.60;99.90;;;;;;10554034;27;20052;-22
2023/11/26 13:24:09;;;;;;;22.97;12.33;;;10.20;99.90;;;;;;10547284;27;20055;-23
2023/11/26 13:29:12;;;;;;;29.00;14.45;;;10.00;99.90;;;;;;10554624;27;20054;-23
2023/11/26 13:34:14;;;;;;;25.38;12.73;;;10.90;99.90;;;;;;10553667;27;20048;-23
2023/11/26 13:39:19;;;;;;;27.93;12.73;;;10.50;99.90;;;;;;10552758;27;20050;-23
2023/11/26 13:44:23;;;;;;;29.60;14.65;;;10.80;99.90;;;;;;10548024;27;20119;-23
2023/11/26 13:49:24;;;;;;;30.13;14.75;;;10.70;99.90;;;;;;10546914;27;20768;-23
2023/11/26 13:54:26;;;;;;;29.83;16.43;;;11.40;99.90;;;;;;10551463;27;20048;-22
2023/11/26 13:59:31;;;;;;;33.72;17.73;;;11.30;99.90;;;;;;10546606;27;20054;-22
2023/11/26 14:04:34;;;;;;;32.47;17.05;;;12.20;99.90;;;;;;10543479;27;20118;-23
2023/11/26 14:09:36;;;;;;;33.97;16.92;;;11.40;99.90;;;;;;10549055;27;20050;-22
2023/11/26 14:14:40;;;;;;;38.40;17.53;;;11.20;99.90;;;;;;10554535;27;20082;-23
2023/11/26 14:19:42;;;;;;;35.47;18.38;;;10.70;99.90;;;;;;10545641;27;20059;-23
2023/11/26 14:24:44;;;;;;;35.27;18.13;;;10.90;99.90;;;;;;10549305;27;20162;-22
2023/11/26 14:29:48;;;;;;;31.42;16.50;;;10.90;99.90;;;;;;10541896;27;20051;-22
2023/11/26 14:34:50;;;;;;;26.67;14.98;;;11.00;99.90;;;;;;10553426;27;20058;-22
2023/11/26 14:39:52;;;;;;;30.98;15.60;;;10.10;99.90;;;;;;10538660;27;20569;-23
2023/11/26 14:44:57;;;;;;;25.53;13.37;;;11.20;99.90;;;;;;10547102;27;20093;-22
2023/11/26 14:50:01;;;;;;;28.10;14.23;;;11.30;99.90;;;;;;10547203;27;20040;-22
2023/11/26 14:55:03;;;;;;;26.23;13.98;;;11.00;99.90;;;;;;10541440;27;20052;-23
2023/11/26 15:00:08;;;;;;;22.92;11.32;;;11.70;99.40;;;;;;10546278;27;20077;-23
2023/11/26 15:05:11;;;;;;;21.58;11.48;;;10.50;99.90;;;;;;10543070;27;20840;-23
2023/11/26 15:10:13;;;;;;;26.70;13.43;;;10.50;99.90;;;;;;10549498;27;20063;-23
2023/11/26 15:15:17;;;;;;;20.17;10.70;;;11.50;99.90;;;;;;10551466;27;20058;-23
2023/11/26 15:20:18;;;;;;;19.95;10.50;;;10.80;99.90;;;;;;10551763;27;20147;-24
2023/11/26 15:25:20;;;;;;;24.47;11.10;;;9.80;99.90;;;;;;10547689;27;20056;-22
2023/11/26 15:30:23;;;;;;;21.27;10.43;;;10.30;99.90;;;;;;10544929;27;20114;-23
2023/11/26 15:35:25;;;;;;;19.63;10.02;;;10.70;99.90;;;;;;10547470;27;20039;-23
2023/11/26 15:40:27;;;;;;;17.35;9.10;;;11.50;99.90;;;;;;10551972;27;20047;-23
2023/11/26 15:45:30;;;;;;;19.80;8.63;;;12.40;99.90;;;;;;10556616;27;20070;-23
2023/11/26 15:50:32;;;;;;;15.48;9.52;;;12.20;95.70;;;;;;10562196;27;20047;-23
2023/11/26 15:55:36;;;;;;;17.43;9.03;;;13.40;99.90;;;;;;10550370;27;20044;-23
2023/11/26 16:00:40;;;;;;;16.95;9.00;;;11.70;96.00;;;;;;10560096;27;20074;-22
2023/11/26 16:05:42;;;;;;;16.13;9.10;;;12.90;99.90;;;;;;10549081;27;20138;-23
2023/11/26 16:10:44;;;;;;;14.07;7.90;;;13.80;97.40;;;;;;10563166;27;20370;-23
2023/11/26 16:15:48;;;;;;;16.83;9.18;;;11.20;98.00;;;;;;10559637;28;20041;-23
2023/11/26 16:20:50;;;;;;;15.23;9.20;;;14.50;99.90;;;;;;10560279;28;20060;-23
2023/11/26 16:25:52;;;;;;;15.70;9.50;;;14.70;98.10;;;;;;10554563;27;22671;-30
2023/11/26 16:30:55;;;;;;;15.23;8.27;;;14.60;99.40;;;;;;10555018;28;20062;-23
2023/11/26 16:35:57;;;;;;;13.95;7.93;;;14.70;99.90;;;;;;10549937;27;21469;-23
2023/11/26 16:40:59;;;;;;;13.30;7.67;;;12.70;93.80;;;;;;10553462;28;20827;-23
2023/11/26 16:46:07;;;;;;;12.95;7.00;;;13.70;98.40;;;;;;10558146;28;20046;-23
2023/11/26 16:51:09;;;;;;;14.82;6.63;;;11.10;98.30;;;;;;10553595;28;20062;-23
2023/11/26 16:56:11;;;;;;;11.10;5.38;;;12.10;99.90;;;;;;10557553;28;20142;-23
2023/11/26 17:01:14;;;;;;;11.32;5.93;;;13.20;99.90;;;;;;10555721;28;20036;-23
2023/11/26 17:06:16;;;;;;;10.50;5.53;;;14.30;87.70;;;;;;10560333;28;20051;-23
2023/11/26 17:11:18;;;;;;;10.20;5.47;;;13.90;97.80;;;;;;10552938;28;20052;-23
2023/11/26 17:16:22;;;;;;;8.07;5.13;;;13.20;91.30;;;;;;10553450;28;20082;-22
2023/11/26 17:21:24;;;;;;;8.65;5.20;;;13.90;95.40;;;;;;10563175;27;20730;-22
2023/11/26 17:26:27;;;;;;;8.03;4.67;;;14.50;99.40;;;;;;10565061;27;20054;-22
2023/11/26 17:31:31;;;;;;;12.00;4.47;;;12.30;99.90;;;;;;10564075;27;20582;-23
2023/11/26 17:36:34;;;;;;;7.35;4.28;;;12.60;93.40;;;;;;10558421;27;20090;-23
2023/11/26 17:41:36;;;;;;;7.85;4.43;;;14.40;99.40;;;;;;10561820;27;20423;-23
2023/11/26 17:46:41;;;;;;;7.15;3.65;;;12.40;99.90;;;;;;10548518;27;20054;-22
2023/11/26 17:51:43;;;;;;;7.35;4.18;;;12.20;99.90;;;;;;10545500;27;20136;-23
2023/11/26 17:56:45;;;;;;;8.00;3.70;;;12.60;99.90;;;;;;10553194;27;20051;-23
2023/11/26 18:01:50;;;;;;;10.80;4.32;;;12.60;99.90;;;;;;10558955;27;20066;-23
2023/11/26 18:06:52;;;;;;;6.03;3.28;;;11.40;99.90;;;;;;10546580;27;20043;-23
2023/11/26 18:11:54;;;;;;;5.60;3.47;;;12.40;99.90;;;;;;10552955;27;20051;-22
2023/11/26 18:16:59;;;;;;;8.10;3.87;;;11.10;99.90;;;;;;10556764;27;22751;-23
2023/11/26 18:22:02;;;;;;;5.55;2.88;;;11.60;99.90;;;;;;10555154;27;20050;-23
2023/11/26 18:27:04;;;;;;;;;;;13.70;99.90;;;;;;10561277;27;20104;-23
2023/11/26 18:32:07;;;;;;;8.88;3.35;;;12.10;99.90;;;;;;10555941;27;20289;-23
2023/11/26 18:37:09;;;;;;;5.80;2.97;;;11.70;99.90;;;;;;10566733;27;20055;-22
2023/11/26 18:42:11;;;;;;;6.27;2.87;;;13.40;99.90;;;;;;10565790;27;20050;-22
2023/11/26 18:47:16;;;;;;;4.00;2.80;;;11.30;99.90;;;;;;10558784;27;20477;-23
2023/11/26 18:52:19;;;;;;;4.70;3.05;;;12.40;99.90;;;;;;10555522;27;20075;-22
2023/11/26 18:57:21;;;;;;;4.72;2.97;;;10.80;99.90;;;;;;10549466;27;20050;-22
2023/11/26 19:02:25;;;;;;;5.40;3.03;;;13.00;99.90;;;;;;10557755;27;20050;-23
2023/11/26 19:07:26;;;;;;;6.25;3.00;;;13.20;99.90;;;;;;10564873;27;20865;-24
2023/11/26 19:12:28;;;;;;;7.97;2.67;;;15.30;99.90;;;;;;10557665;27;20066;-24
2023/11/26 19:17:33;;;;;;;7.07;2.77;;;14.50;97.60;;;;;;10559012;27;20078;-23
2023/11/26 19:22:35;;;;;;;6.85;3.03;;;15.30;99.30;;;;;;10556945;27;20051;-23
2023/11/26 19:27:37;;;;;;;8.13;2.87;;;12.60;99.10;;;;;;10557994;27;20051;-23
2023/11/26 19:32:40;;;;;;;6.90;2.60;;;10.90;99.90;;;;;;10558322;27;20066;-26
2023/11/26 19:37:42;;;;;;;6.53;2.47;;;11.40;99.90;;;;;;10560523;27;20410;-22
2023/11/26 19:42:44;;;;;;;6.33;2.83;;;11.00;99.90;;;;;;10554781;27;20056;-22
2023/11/26 19:47:47;;;;;;;5.63;3.20;;;13.30;99.90;;;;;;10552053;27;20479;-23
2023/11/26 19:52:49;;;;;;;6.93;2.67;;;12.10;99.90;;;;;;10550219;27;20047;-23
2023/11/26 19:57:53;;;;;;;6.33;2.87;;;11.30;99.90;;;;;;10555345;27;20977;-21
2023/11/26 20:02:56;;;;;;;5.13;2.42;;;11.30;99.90;;;;;;10555692;27;20188;-22
2023/11/26 20:07:58;;;;;;;6.80;2.65;;;11.50;99.90;;;;;;10547484;27;20050;-23
2023/11/26 20:13:00;;;;;;;6.10;2.83;;;11.90;99.90;;;;;;10547463;27;20149;-23
2023/11/26 20:18:03;;;;;;;12.30;3.13;;;12.10;99.90;;;;;;10555988;27;20497;-23
2023/11/26 20:23:05;;;;;;;5.55;2.42;;;12.00;99.90;;;;;;10549120;28;20081;-23
2023/11/26 20:28:07;;;;;;;7.83;2.77;;;13.00;99.90;;;;;;10548034;28;20111;-23
2023/11/26 20:33:11;;;;;;;11.63;2.95;;;13.90;99.90;;;;;;10554262;28;20055;-21
2023/11/26 20:38:13;;;;;;;7.53;2.63;;;14.50;99.90;;;;;;10546402;28;20133;-22
2023/11/26 20:43:15;;;;;;;15.30;2.87;;;12.70;99.90;;;;;;10547408;28;20634;-22
2023/11/26 20:48:18;;;;;;;12.50;2.60;;;14.50;99.90;;;;;;10557720;28;20477;-22
2023/11/26 20:53:20;;;;;;;11.70;2.63;;;15.20;99.90;;;;;;10555641;27;20048;-22
2023/11/26 20:58:22;;;;;;;8.10;2.43;;;15.30;99.90;;;;;;10559538;27;20051;-23
2023/11/26 21:03:25;;;;;;;9.60;3.00;;;14.10;99.90;;;;;;10556706;27;20081;-23
2023/11/26 21:08:27;;;;;;;11.00;2.42;;;14.60;99.90;;;;;;10556560;27;20411;-23
2023/11/26 21:13:29;;;;;;;7.83;2.77;;;14.30;99.90;;;;;;10563542;27;20133;-22
2023/11/26 21:18:33;;;;;;;10.02;3.05;;;12.30;99.90;;;;;;10566146;27;20063;-23
2023/11/26 21:23:35;;;;;;;9.77;3.05;;;12.60;99.90;;;;;;10562399;27;20054;-22
2023/11/26 21:28:37;;;;;;;8.20;2.50;;;15.20;99.90;;;;;;10566407;27;20391;-23
2023/11/26 21:33:40;;;;;;;14.23;2.77;;;15.60;99.90;;;;;;10565959;27;20464;-23
2023/11/26 21:38:43;;;;;;;16.13;2.78;;;15.40;97.80;;;;;;10551672;27;20851;-23
2023/11/26 21:43:44;;;;;;;;;;;15.70;99.90;;;;;;10569249;27;20059;-23
2023/11/26 21:48:48;;;;;;;6.45;2.90;;;14.30;98.00;;;;;;10566066;27;19930;-23
2023/11/26 21:53:51;;;;;;;12.20;3.10;;;14.30;99.90;;;;;;10566675;27;20066;-23
2023/11/26 21:58:55;;;;;;;8.35;2.50;;;14.50;99.90;;;;;;10566986;27;20047;-23
2023/11/26 22:03:58;;;;;;;8.95;3.03;;;15.90;99.30;;;;;;10569686;27;20134;-23
2023/11/26 22:09:00;;;;;;;7.68;2.03;;;14.30;99.90;;;;;;10568347;27;20048;-23
2023/11/26 22:14:02;;;;;;;9.70;2.20;;;15.70;96.60;;;;;;10573470;27;20051;-23
2023/11/26 22:19:05;;;;;;;7.40;2.83;;;14.50;99.40;;;;;;10566001;27;21290;-22
2023/11/26 22:24:07;;;;;;;6.20;2.42;;;12.80;99.90;;;;;;10569702;27;20068;-23
2023/11/26 22:29:09;;;;;;;8.82;2.80;;;14.60;99.90;;;;;;10554197;27;20553;-22
2023/11/26 22:34:14;;;;;;;9.00;2.83;;;14.00;99.90;;;;;;10554814;27;20054;-23
2023/11/26 22:39:16;;;;;;;4.95;2.50;;;12.90;99.90;;;;;;10559459;27;20498;-23
2023/11/26 22:44:18;;;;;;;5.30;2.50;;;12.00;99.90;;;;;;10537151;27;20093;-23
2023/11/26 22:49:21;;;;;;;7.17;2.33;;;12.30;99.90;;;;;;10554636;27;20064;-23
2023/11/26 22:54:23;;;;;;;7.18;3.13;;;12.40;99.90;;;;;;10564567;27;20047;-23
2023/11/26 22:59:25;;;;;;;7.28;2.38;;;10.70;99.90;;;;;;10561361;27;20779;-23
2023/11/26 23:04:29;;;;;;;6.40;2.63;;;10.90;99.90;;;;;;10559998;27;20048;-23
2023/11/26 23:09:30;;;;;;;2.85;2.03;;;11.40;99.90;;;;;;10558743;27;20985;-23
2023/11/26 23:14:33;;;;;;;7.80;2.63;;;12.70;99.90;;;;;;10557782;27;20083;-22
2023/11/26 23:19:36;;;;;;;3.17;2.10;;;11.80;99.90;;;;;;10555712;27;20283;-22
2023/11/26 23:24:38;;;;;;;3.78;1.80;;;12.40;99.90;;;;;;10556634;27;20089;-23
2023/11/26 23:29:40;;;;;;;6.23;2.03;;;13.90;99.90;;;;;;10562571;27;20054;-23
2023/11/26 23:34:43;;;;;;;2.90;2.00;;;13.60;99.90;;;;;;10560755;27;20125;-22
2023/11/26 23:39:45;;;;;;;3.65;1.98;;;14.00;99.90;;;;;;10558153;27;20059;-21
2023/11/26 23:44:47;;;;;;;2.67;1.80;;;14.30;99.90;;;;;;10555605;27;20051;-22
2023/11/26 23:49:50;;;;;;;3.45;1.60;;;14.30;99.90;;;;;;10557116;27;20296;-21
2023/11/26 23:54:53;;;;;;;3.95;2.00;;;14.20;98.50;;;;;;10561597;27;20125;-23
2023/11/26 23:59:55;;;;;;;3.90;2.25;;;14.00;99.70;;;;;;10556574;27;20058;-22
